sensor_id;sensor_type;location;lat;lon;timestamp;P1;durP1;ratioP1;P2;durP2;ratioP2
16640;SDS011;8434;47.990;7.880;2024-01-16T00:00:17;8.33;;;4.07;;
16640;SDS011;8434;47.990;7.880;2024-01-16T00:03:02;6.67;;;3.60;;
16640;SDS011;8434;47.990;7.880;2024-01-16T00:05:48;6.40;;;3.30;;
16640;SDS011;8434;47.990;7.880;2024-01-16T00:08:34;9.13;;;3.87;;
16640;SDS011;8434;47.990;7.880;2024-01-16T00:11:20;7.90;;;3.73;;
16640;SDS011;8434;47.990;7.880;2024-01-16T00:14:05;8.20;;;4.07;;
16640;SDS011;8434;47.990;7.880;2024-01-16T00:16:51;8.30;;;4.70;;
16640;SDS011;8434;47.990;7.880;2024-01-16T00:19:36;9.07;;;4.60;;
16640;SDS011;8434;47.990;7.880;2024-01-16T00:22:22;7.80;;;4.43;;
16640;SDS011;8434;47.990;7.880;2024-01-16T00:25:09;7.20;;;4.17;;
16640;SDS011;8434;47.990;7.880;2024-01-16T00:27:54;9.30;;;5.20;;
16640;SDS011;8434;47.990;7.880;2024-01-16T00:30:40;6.67;;;3.40;;
16640;SDS011;8434;47.990;7.880;2024-01-16T00:33:27;8.50;;;3.90;;
16640;SDS011;8434;47.990;7.880;2024-01-16T00:36:13;7.03;;;4.00;;
16640;SDS011;8434;47.990;7.880;2024-01-16T00:38:58;8.83;;;4.13;;
16640;SDS011;8434;47.990;7.880;2024-01-16T00:41:45;7.33;;;4.63;;
16640;SDS011;8434;47.990;7.880;2024-01-16T00:44:31;5.67;;;3.53;;
16640;SDS011;8434;47.990;7.880;2024-01-16T00:47:16;5.97;;;4.03;;
16640;SDS011;8434;47.990;7.880;2024-01-16T00:50:02;7.13;;;3.97;;
16640;SDS011;8434;47.990;7.880;2024-01-16T00:52:47;5.97;;;4.00;;
16640;SDS011;8434;47.990;7.880;2024-01-16T00:55:33;9.00;;;3.87;;
16640;SDS011;8434;47.990;7.880;2024-01-16T00:58:21;6.17;;;3.57;;
16640;SDS011;8434;47.990;7.880;2024-01-16T01:01:06;7.17;;;3.43;;
16640;SDS011;8434;47.990;7.880;2024-01-16T01:03:51;7.93;;;3.43;;
16640;SDS011;8434;47.990;7.880;2024-01-16T01:06:37;10.83;;;4.40;;
16640;SDS011;8434;47.990;7.880;2024-01-16T01:09:23;7.20;;;3.37;;
16640;SDS011;8434;47.990;7.880;2024-01-16T01:12:08;8.60;;;4.13;;
16640;SDS011;8434;47.990;7.880;2024-01-16T01:14:55;9.67;;;4.33;;
16640;SDS011;8434;47.990;7.880;2024-01-16T01:17:41;7.83;;;3.80;;
16640;SDS011;8434;47.990;7.880;2024-01-16T01:20:28;5.90;;;3.27;;
16640;SDS011;8434;47.990;7.880;2024-01-16T01:26:55;9.83;;;3.80;;
16640;SDS011;8434;47.990;7.880;2024-01-16T01:29:40;6.30;;;3.60;;
16640;SDS011;8434;47.990;7.880;2024-01-16T01:32:27;7.23;;;3.33;;
16640;SDS011;8434;47.990;7.880;2024-01-16T01:35:12;9.20;;;5.03;;
16640;SDS011;8434;47.990;7.880;2024-01-16T01:37:58;5.47;;;2.90;;
16640;SDS011;8434;47.990;7.880;2024-01-16T01:40:44;7.23;;;3.87;;
16640;SDS011;8434;47.990;7.880;2024-01-16T01:43:29;6.43;;;3.73;;
16640;SDS011;8434;47.990;7.880;2024-01-16T01:46:16;4.63;;;2.87;;
16640;SDS011;8434;47.990;7.880;2024-01-16T01:49:04;5.10;;;3.50;;
16640;SDS011;8434;47.990;7.880;2024-01-16T01:51:49;6.20;;;3.87;;
16640;SDS011;8434;47.990;7.880;2024-01-16T01:54:35;5.17;;;3.03;;
16640;SDS011;8434;47.990;7.880;2024-01-16T01:57:21;5.93;;;3.40;;
16640;SDS011;8434;47.990;7.880;2024-01-16T02:00:07;6.23;;;2.77;;
16640;SDS011;8434;47.990;7.880;2024-01-16T02:02:58;4.40;;;2.90;;
16640;SDS011;8434;47.990;7.880;2024-01-16T02:05:45;5.43;;;3.63;;
16640;SDS011;8434;47.990;7.880;2024-01-16T02:08:30;5.23;;;3.03;;
16640;SDS011;8434;47.990;7.880;2024-01-16T02:11:16;6.60;;;2.97;;
16640;SDS011;8434;47.990;7.880;2024-01-16T02:14:02;5.20;;;2.97;;
16640;SDS011;8434;47.990;7.880;2024-01-16T02:16:47;5.00;;;3.40;;
16640;SDS011;8434;47.990;7.880;2024-01-16T02:19:33;6.80;;;3.70;;
16640;SDS011;8434;47.990;7.880;2024-01-16T02:22:20;7.00;;;3.30;;
16640;SDS011;8434;47.990;7.880;2024-01-16T02:25:11;5.13;;;3.07;;
16640;SDS011;8434;47.990;7.880;2024-01-16T02:27:56;4.13;;;1.93;;
16640;SDS011;8434;47.990;7.880;2024-01-16T02:30:42;5.73;;;3.53;;
16640;SDS011;8434;47.990;7.880;2024-01-16T02:33:27;6.60;;;3.63;;
16640;SDS011;8434;47.990;7.880;2024-01-16T02:36:12;7.17;;;3.33;;
16640;SDS011;8434;47.990;7.880;2024-01-16T02:38:58;6.40;;;2.87;;
16640;SDS011;8434;47.990;7.880;2024-01-16T02:41:45;3.90;;;2.50;;
16640;SDS011;8434;47.990;7.880;2024-01-16T02:44:30;6.77;;;3.50;;
16640;SDS011;8434;47.990;7.880;2024-01-16T02:47:16;5.17;;;3.03;;
16640;SDS011;8434;47.990;7.880;2024-01-16T02:50:01;6.73;;;2.70;;
16640;SDS011;8434;47.990;7.880;2024-01-16T02:52:47;4.13;;;2.47;;
16640;SDS011;8434;47.990;7.880;2024-01-16T02:55:32;4.43;;;2.43;;
16640;SDS011;8434;47.990;7.880;2024-01-16T02:58:19;7.43;;;3.10;;
16640;SDS011;8434;47.990;7.880;2024-01-16T03:01:04;5.47;;;3.20;;
16640;SDS011;8434;47.990;7.880;2024-01-16T03:03:50;7.53;;;2.70;;
16640;SDS011;8434;47.990;7.880;2024-01-16T03:06:35;5.27;;;2.47;;
16640;SDS011;8434;47.990;7.880;2024-01-16T03:09:21;5.63;;;3.13;;
16640;SDS011;8434;47.990;7.880;2024-01-16T03:12:06;6.77;;;3.00;;
16640;SDS011;8434;47.990;7.880;2024-01-16T03:14:53;3.30;;;2.07;;
16640;SDS011;8434;47.990;7.880;2024-01-16T03:17:38;4.80;;;2.57;;
16640;SDS011;8434;47.990;7.880;2024-01-16T03:20:24;4.03;;;2.10;;
16640;SDS011;8434;47.990;7.880;2024-01-16T03:23:10;5.67;;;3.30;;
16640;SDS011;8434;47.990;7.880;2024-01-16T03:25:55;6.23;;;2.70;;
16640;SDS011;8434;47.990;7.880;2024-01-16T03:32:28;4.23;;;2.33;;
16640;SDS011;8434;47.990;7.880;2024-01-16T03:35:13;4.20;;;3.20;;
16640;SDS011;8434;47.990;7.880;2024-01-16T03:37:59;5.73;;;3.10;;
16640;SDS011;8434;47.990;7.880;2024-01-16T03:40:44;3.67;;;2.30;;
16640;SDS011;8434;47.990;7.880;2024-01-16T03:43:30;3.93;;;2.30;;
16640;SDS011;8434;47.990;7.880;2024-01-16T03:46:15;6.63;;;2.77;;
16640;SDS011;8434;47.990;7.880;2024-01-16T03:49:02;4.43;;;2.60;;
16640;SDS011;8434;47.990;7.880;2024-01-16T03:51:47;8.43;;;2.87;;
16640;SDS011;8434;47.990;7.880;2024-01-16T03:54:33;3.77;;;2.30;;
16640;SDS011;8434;47.990;7.880;2024-01-16T03:57:18;3.57;;;1.67;;
16640;SDS011;8434;47.990;7.880;2024-01-16T04:00:04;5.63;;;3.50;;
16640;SDS011;8434;47.990;7.880;2024-01-16T04:02:50;5.00;;;2.63;;
16640;SDS011;8434;47.990;7.880;2024-01-16T04:05:37;5.33;;;3.50;;
16640;SDS011;8434;47.990;7.880;2024-01-16T04:08:22;6.40;;;3.27;;
16640;SDS011;8434;47.990;7.880;2024-01-16T04:11:11;6.77;;;2.30;;
16640;SDS011;8434;47.990;7.880;2024-01-16T04:13:56;6.27;;;2.73;;
16640;SDS011;8434;47.990;7.880;2024-01-16T04:16:41;4.80;;;2.70;;
16640;SDS011;8434;47.990;7.880;2024-01-16T04:19:27;5.80;;;3.00;;
16640;SDS011;8434;47.990;7.880;2024-01-16T04:22:13;4.57;;;3.37;;
16640;SDS011;8434;47.990;7.880;2024-01-16T04:24:59;2.80;;;2.37;;
16640;SDS011;8434;47.990;7.880;2024-01-16T04:27:44;3.67;;;2.40;;
16640;SDS011;8434;47.990;7.880;2024-01-16T04:30:30;4.13;;;2.57;;
16640;SDS011;8434;47.990;7.880;2024-01-16T04:33:15;2.10;;;1.73;;
16640;SDS011;8434;47.990;7.880;2024-01-16T04:36:00;7.83;;;2.10;;
16640;SDS011;8434;47.990;7.880;2024-01-16T04:38:47;4.30;;;2.37;;
16640;SDS011;8434;47.990;7.880;2024-01-16T04:41:32;3.80;;;2.37;;
16640;SDS011;8434;47.990;7.880;2024-01-16T04:44:18;5.53;;;2.73;;
16640;SDS011;8434;47.990;7.880;2024-01-16T04:47:03;3.90;;;2.43;;
16640;SDS011;8434;47.990;7.880;2024-01-16T04:49:48;6.63;;;2.50;;
16640;SDS011;8434;47.990;7.880;2024-01-16T04:52:34;3.97;;;2.07;;
16640;SDS011;8434;47.990;7.880;2024-01-16T04:55:21;4.90;;;3.33;;
16640;SDS011;8434;47.990;7.880;2024-01-16T04:58:06;5.30;;;2.77;;
16640;SDS011;8434;47.990;7.880;2024-01-16T05:00:52;5.00;;;2.60;;
16640;SDS011;8434;47.990;7.880;2024-01-16T05:03:37;5.27;;;2.57;;
16640;SDS011;8434;47.990;7.880;2024-01-16T05:06:23;3.90;;;2.80;;
16640;SDS011;8434;47.990;7.880;2024-01-16T05:09:08;3.93;;;2.20;;
16640;SDS011;8434;47.990;7.880;2024-01-16T05:11:55;3.27;;;2.07;;
16640;SDS011;8434;47.990;7.880;2024-01-16T05:14:41;3.20;;;1.97;;
16640;SDS011;8434;47.990;7.880;2024-01-16T05:17:26;5.27;;;2.27;;
16640;SDS011;8434;47.990;7.880;2024-01-16T05:20:12;3.30;;;2.20;;
16640;SDS011;8434;47.990;7.880;2024-01-16T05:22:57;3.83;;;2.43;;
16640;SDS011;8434;47.990;7.880;2024-01-16T05:25:43;4.87;;;2.90;;
16640;SDS011;8434;47.990;7.880;2024-01-16T05:28:29;4.40;;;2.50;;
16640;SDS011;8434;47.990;7.880;2024-01-16T05:31:15;5.73;;;2.63;;
16640;SDS011;8434;47.990;7.880;2024-01-16T05:34:01;4.20;;;2.53;;
16640;SDS011;8434;47.990;7.880;2024-01-16T05:36:47;8.20;;;3.20;;
16640;SDS011;8434;47.990;7.880;2024-01-16T05:39:33;7.33;;;2.97;;
16640;SDS011;8434;47.990;7.880;2024-01-16T05:45:50;7.97;;;3.90;;
16640;SDS011;8434;47.990;7.880;2024-01-16T05:48:36;6.20;;;3.30;;
16640;SDS011;8434;47.990;7.880;2024-01-16T05:51:21;4.87;;;2.97;;
16640;SDS011;8434;47.990;7.880;2024-01-16T05:54:07;7.83;;;2.80;;
16640;SDS011;8434;47.990;7.880;2024-01-16T05:56:52;5.07;;;3.27;;
16640;SDS011;8434;47.990;7.880;2024-01-16T05:59:37;6.70;;;2.53;;
16640;SDS011;8434;47.990;7.880;2024-01-16T06:02:24;6.30;;;3.57;;
16640;SDS011;8434;47.990;7.880;2024-01-16T06:05:13;7.37;;;3.07;;
16640;SDS011;8434;47.990;7.880;2024-01-16T06:07:59;5.50;;;2.23;;
16640;SDS011;8434;47.990;7.880;2024-01-16T06:10:45;5.70;;;2.90;;
16640;SDS011;8434;47.990;7.880;2024-01-16T06:13:30;4.70;;;3.07;;
16640;SDS011;8434;47.990;7.880;2024-01-16T06:16:17;4.97;;;2.80;;
16640;SDS011;8434;47.990;7.880;2024-01-16T06:19:04;7.60;;;3.40;;
16640;SDS011;8434;47.990;7.880;2024-01-16T06:21:50;5.93;;;2.60;;
16640;SDS011;8434;47.990;7.880;2024-01-16T06:24:35;4.37;;;2.97;;
16640;SDS011;8434;47.990;7.880;2024-01-16T06:27:21;8.53;;;2.93;;
16640;SDS011;8434;47.990;7.880;2024-01-16T06:30:07;3.67;;;2.40;;
16640;SDS011;8434;47.990;7.880;2024-01-16T06:32:54;6.47;;;3.63;;
16640;SDS011;8434;47.990;7.880;2024-01-16T06:35:40;6.33;;;3.60;;
16640;SDS011;8434;47.990;7.880;2024-01-16T06:38:26;6.13;;;3.40;;
16640;SDS011;8434;47.990;7.880;2024-01-16T06:41:11;8.50;;;3.50;;
16640;SDS011;8434;47.990;7.880;2024-01-16T06:43:57;5.20;;;3.33;;
16640;SDS011;8434;47.990;7.880;2024-01-16T06:46:42;7.50;;;3.53;;
16640;SDS011;8434;47.990;7.880;2024-01-16T06:49:28;6.30;;;3.30;;
16640;SDS011;8434;47.990;7.880;2024-01-16T06:52:15;2.30;;;1.57;;
16640;SDS011;8434;47.990;7.880;2024-01-16T06:55:00;7.33;;;2.83;;
16640;SDS011;8434;47.990;7.880;2024-01-16T06:57:46;6.97;;;3.00;;
16640;SDS011;8434;47.990;7.880;2024-01-16T07:00:31;5.93;;;2.93;;
16640;SDS011;8434;47.990;7.880;2024-01-16T07:03:17;4.43;;;2.77;;
16640;SDS011;8434;47.990;7.880;2024-01-16T07:06:02;5.10;;;2.60;;
16640;SDS011;8434;47.990;7.880;2024-01-16T07:08:49;7.00;;;2.60;;
16640;SDS011;8434;47.990;7.880;2024-01-16T07:11:34;5.57;;;3.17;;
16640;SDS011;8434;47.990;7.880;2024-01-16T07:14:20;7.23;;;4.33;;
16640;SDS011;8434;47.990;7.880;2024-01-16T07:17:05;8.23;;;3.13;;
16640;SDS011;8434;47.990;7.880;2024-01-16T07:19:51;7.40;;;2.93;;
16640;SDS011;8434;47.990;7.880;2024-01-16T07:22:37;5.30;;;2.60;;
16640;SDS011;8434;47.990;7.880;2024-01-16T07:25:25;3.97;;;2.80;;
16640;SDS011;8434;47.990;7.880;2024-01-16T07:28:10;5.97;;;3.47;;
16640;SDS011;8434;47.990;7.880;2024-01-16T07:30:56;5.77;;;2.93;;
16640;SDS011;8434;47.990;7.880;2024-01-16T07:33:41;3.67;;;2.83;;
16640;SDS011;8434;47.990;7.880;2024-01-16T07:36:26;4.30;;;3.13;;
16640;SDS011;8434;47.990;7.880;2024-01-16T07:39:12;6.23;;;3.80;;
16640;SDS011;8434;47.990;7.880;2024-01-16T07:41:59;7.53;;;3.67;;
16640;SDS011;8434;47.990;7.880;2024-01-16T07:44:45;5.27;;;3.20;;
16640;SDS011;8434;47.990;7.880;2024-01-16T07:47:30;8.13;;;4.43;;
16640;SDS011;8434;47.990;7.880;2024-01-16T07:50:17;7.03;;;4.27;;
16640;SDS011;8434;47.990;7.880;2024-01-16T07:53:02;6.33;;;3.80;;
16640;SDS011;8434;47.990;7.880;2024-01-16T07:55:47;8.43;;;3.90;;
16640;SDS011;8434;47.990;7.880;2024-01-16T07:58:34;5.07;;;3.63;;
16640;SDS011;8434;47.990;7.880;2024-01-16T08:01:23;7.73;;;3.30;;
16640;SDS011;8434;47.990;7.880;2024-01-16T08:04:09;5.67;;;3.73;;
16640;SDS011;8434;47.990;7.880;2024-01-16T08:09:59;6.83;;;3.80;;
16640;SDS011;8434;47.990;7.880;2024-01-16T08:12:44;7.27;;;3.67;;
16640;SDS011;8434;47.990;7.880;2024-01-16T08:15:31;4.63;;;2.93;;
16640;SDS011;8434;47.990;7.880;2024-01-16T08:18:18;4.17;;;2.80;;
16640;SDS011;8434;47.990;7.880;2024-01-16T08:21:04;7.67;;;3.73;;
16640;SDS011;8434;47.990;7.880;2024-01-16T08:23:49;7.17;;;3.73;;
16640;SDS011;8434;47.990;7.880;2024-01-16T08:26:35;4.13;;;2.90;;
16640;SDS011;8434;47.990;7.880;2024-01-16T08:29:20;6.50;;;2.80;;
16640;SDS011;8434;47.990;7.880;2024-01-16T08:32:07;5.50;;;2.90;;
16640;SDS011;8434;47.990;7.880;2024-01-16T08:34:52;5.20;;;3.00;;
16640;SDS011;8434;47.990;7.880;2024-01-16T08:37:38;6.37;;;3.50;;
16640;SDS011;8434;47.990;7.880;2024-01-16T08:40:26;5.83;;;3.43;;
16640;SDS011;8434;47.990;7.880;2024-01-16T08:43:12;5.57;;;3.17;;
16640;SDS011;8434;47.990;7.880;2024-01-16T08:45:57;6.37;;;3.03;;
16640;SDS011;8434;47.990;7.880;2024-01-16T08:48:44;5.13;;;3.20;;
16640;SDS011;8434;47.990;7.880;2024-01-16T08:51:29;6.17;;;3.33;;
16640;SDS011;8434;47.990;7.880;2024-01-16T08:54:14;5.13;;;2.77;;
16640;SDS011;8434;47.990;7.880;2024-01-16T08:57:00;6.80;;;3.87;;
16640;SDS011;8434;47.990;7.880;2024-01-16T08:59:45;7.00;;;2.83;;
16640;SDS011;8434;47.990;7.880;2024-01-16T09:02:31;5.67;;;3.50;;
16640;SDS011;8434;47.990;7.880;2024-01-16T09:05:17;5.67;;;3.00;;
16640;SDS011;8434;47.990;7.880;2024-01-16T09:08:05;4.93;;;3.50;;
16640;SDS011;8434;47.990;7.880;2024-01-16T09:10:51;5.67;;;3.50;;
16640;SDS011;8434;47.990;7.880;2024-01-16T09:13:36;4.90;;;3.23;;
16640;SDS011;8434;47.990;7.880;2024-01-16T09:16:21;4.43;;;3.00;;
16640;SDS011;8434;47.990;7.880;2024-01-16T09:19:07;5.10;;;3.43;;
16640;SDS011;8434;47.990;7.880;2024-01-16T09:21:54;6.63;;;3.07;;
16640;SDS011;8434;47.990;7.880;2024-01-16T09:24:40;6.27;;;3.40;;
16640;SDS011;8434;47.990;7.880;2024-01-16T09:27:25;5.50;;;3.13;;
16640;SDS011;8434;47.990;7.880;2024-01-16T09:30:11;5.07;;;3.03;;
16640;SDS011;8434;47.990;7.880;2024-01-16T09:32:57;4.40;;;2.50;;
16640;SDS011;8434;47.990;7.880;2024-01-16T09:35:42;2.87;;;2.23;;
16640;SDS011;8434;47.990;7.880;2024-01-16T09:38:29;4.80;;;2.87;;
16640;SDS011;8434;47.990;7.880;2024-01-16T09:41:15;5.90;;;3.07;;
16640;SDS011;8434;47.990;7.880;2024-01-16T09:44:00;6.77;;;3.43;;
16640;SDS011;8434;47.990;7.880;2024-01-16T09:46:46;8.10;;;3.33;;
16640;SDS011;8434;47.990;7.880;2024-01-16T09:49:33;9.00;;;2.90;;
16640;SDS011;8434;47.990;7.880;2024-01-16T09:52:19;4.30;;;2.47;;
16640;SDS011;8434;47.990;7.880;2024-01-16T09:55:06;3.33;;;2.17;;
16640;SDS011;8434;47.990;7.880;2024-01-16T09:57:52;6.73;;;2.07;;
16640;SDS011;8434;47.990;7.880;2024-01-16T10:00:38;4.77;;;2.53;;
16640;SDS011;8434;47.990;7.880;2024-01-16T10:03:25;7.43;;;3.37;;
16640;SDS011;8434;47.990;7.880;2024-01-16T10:06:11;3.23;;;2.20;;
16640;SDS011;8434;47.990;7.880;2024-01-16T10:08:58;3.87;;;1.70;;
16640;SDS011;8434;47.990;7.880;2024-01-16T10:11:44;3.47;;;1.70;;
16640;SDS011;8434;47.990;7.880;2024-01-16T10:14:31;2.80;;;2.47;;
16640;SDS011;8434;47.990;7.880;2024-01-16T10:17:18;2.73;;;1.80;;
16640;SDS011;8434;47.990;7.880;2024-01-16T10:23:13;4.23;;;1.90;;
16640;SDS011;8434;47.990;7.880;2024-01-16T10:26:10;2.20;;;1.53;;
16640;SDS011;8434;47.990;7.880;2024-01-16T10:28:58;5.67;;;2.80;;
16640;SDS011;8434;47.990;7.880;2024-01-16T10:31:48;3.90;;;2.13;;
16640;SDS011;8434;47.990;7.880;2024-01-16T10:34:33;4.50;;;2.00;;
16640;SDS011;8434;47.990;7.880;2024-01-16T10:37:19;3.20;;;2.00;;
16640;SDS011;8434;47.990;7.880;2024-01-16T10:40:05;2.93;;;1.90;;
16640;SDS011;8434;47.990;7.880;2024-01-16T10:42:58;4.27;;;2.20;;
16640;SDS011;8434;47.990;7.880;2024-01-16T10:45:45;5.03;;;1.60;;
16640;SDS011;8434;47.990;7.880;2024-01-16T10:48:31;2.70;;;1.57;;
16640;SDS011;8434;47.990;7.880;2024-01-16T10:51:16;2.80;;;1.63;;
16640;SDS011;8434;47.990;7.880;2024-01-16T10:54:02;3.20;;;2.37;;
16640;SDS011;8434;47.990;7.880;2024-01-16T10:56:49;2.30;;;1.70;;
16640;SDS011;8434;47.990;7.880;2024-01-16T10:59:36;2.27;;;1.57;;
16640;SDS011;8434;47.990;7.880;2024-01-16T11:02:27;3.47;;;1.50;;
16640;SDS011;8434;47.990;7.880;2024-01-16T11:05:15;2.37;;;1.73;;
16640;SDS011;8434;47.990;7.880;2024-01-16T11:08:02;5.93;;;2.20;;
16640;SDS011;8434;47.990;7.880;2024-01-16T11:10:48;3.40;;;2.30;;
16640;SDS011;8434;47.990;7.880;2024-01-16T11:13:34;10.87;;;3.97;;
16640;SDS011;8434;47.990;7.880;2024-01-16T11:16:19;11.10;;;3.87;;
16640;SDS011;8434;47.990;7.880;2024-01-16T11:19:07;12.03;;;3.83;;
16640;SDS011;8434;47.990;7.880;2024-01-16T11:21:53;7.57;;;3.67;;
16640;SDS011;8434;47.990;7.880;2024-01-16T11:24:38;4.60;;;3.17;;
16640;SDS011;8434;47.990;7.880;2024-01-16T11:27:24;4.53;;;2.83;;
16640;SDS011;8434;47.990;7.880;2024-01-16T11:30:10;6.77;;;3.30;;
16640;SDS011;8434;47.990;7.880;2024-01-16T11:32:56;5.57;;;3.80;;
16640;SDS011;8434;47.990;7.880;2024-01-16T11:35:43;8.63;;;3.57;;
16640;SDS011;8434;47.990;7.880;2024-01-16T11:38:28;7.00;;;4.30;;
16640;SDS011;8434;47.990;7.880;2024-01-16T11:41:24;10.07;;;3.87;;
16640;SDS011;8434;47.990;7.880;2024-01-16T11:44:38;5.10;;;3.67;;
16640;SDS011;8434;47.990;7.880;2024-01-16T11:47:26;5.90;;;4.33;;
16640;SDS011;8434;47.990;7.880;2024-01-16T11:50:11;4.67;;;3.47;;
16640;SDS011;8434;47.990;7.880;2024-01-16T11:52:57;7.70;;;4.30;;
16640;SDS011;8434;47.990;7.880;2024-01-16T11:55:44;8.97;;;4.60;;
16640;SDS011;8434;47.990;7.880;2024-01-16T11:58:41;8.23;;;4.10;;
16640;SDS011;8434;47.990;7.880;2024-01-16T12:01:31;8.57;;;3.70;;
16640;SDS011;8434;47.990;7.880;2024-01-16T12:04:17;9.80;;;4.73;;
16640;SDS011;8434;47.990;7.880;2024-01-16T12:07:04;9.47;;;5.67;;
16640;SDS011;8434;47.990;7.880;2024-01-16T12:09:50;5.97;;;3.77;;
16640;SDS011;8434;47.990;7.880;2024-01-16T12:12:36;8.47;;;4.23;;
16640;SDS011;8434;47.990;7.880;2024-01-16T12:15:21;6.87;;;4.27;;
16640;SDS011;8434;47.990;7.880;2024-01-16T12:18:08;7.10;;;4.03;;
16640;SDS011;8434;47.990;7.880;2024-01-16T12:20:53;5.60;;;3.53;;
16640;SDS011;8434;47.990;7.880;2024-01-16T12:23:39;5.20;;;3.47;;
16640;SDS011;8434;47.990;7.880;2024-01-16T12:26:28;6.77;;;3.93;;
16640;SDS011;8434;47.990;7.880;2024-01-16T12:29:17;7.67;;;4.10;;
16640;SDS011;8434;47.990;7.880;2024-01-16T12:36:05;4.83;;;3.73;;
16640;SDS011;8434;47.990;7.880;2024-01-16T12:38:54;4.67;;;3.47;;
16640;SDS011;8434;47.990;7.880;2024-01-16T12:41:41;8.13;;;3.90;;
16640;SDS011;8434;47.990;7.880;2024-01-16T12:44:27;9.27;;;5.43;;
16640;SDS011;8434;47.990;7.880;2024-01-16T12:47:14;6.80;;;3.90;;
16640;SDS011;8434;47.990;7.880;2024-01-16T12:50:00;7.70;;;4.33;;
16640;SDS011;8434;47.990;7.880;2024-01-16T12:52:47;9.93;;;4.67;;
16640;SDS011;8434;47.990;7.880;2024-01-16T12:55:32;8.73;;;4.80;;
16640;SDS011;8434;47.990;7.880;2024-01-16T12:58:19;8.87;;;3.70;;
16640;SDS011;8434;47.990;7.880;2024-01-16T13:01:21;7.73;;;4.20;;
16640;SDS011;8434;47.990;7.880;2024-01-16T13:04:07;5.60;;;3.47;;
16640;SDS011;8434;47.990;7.880;2024-01-16T13:07:00;6.00;;;3.37;;
16640;SDS011;8434;47.990;7.880;2024-01-16T13:09:46;9.97;;;3.60;;
16640;SDS011;8434;47.990;7.880;2024-01-16T13:12:32;7.30;;;3.97;;
16640;SDS011;8434;47.990;7.880;2024-01-16T13:15:17;7.63;;;4.07;;
16640;SDS011;8434;47.990;7.880;2024-01-16T13:18:03;6.97;;;3.17;;
16640;SDS011;8434;47.990;7.880;2024-01-16T13:20:48;5.73;;;3.60;;
16640;SDS011;8434;47.990;7.880;2024-01-16T13:23:34;5.33;;;3.30;;
16640;SDS011;8434;47.990;7.880;2024-01-16T13:26:20;9.93;;;4.57;;
16640;SDS011;8434;47.990;7.880;2024-01-16T13:29:06;10.00;;;3.83;;
16640;SDS011;8434;47.990;7.880;2024-01-16T13:31:52;6.93;;;4.00;;
16640;SDS011;8434;47.990;7.880;2024-01-16T13:34:39;10.37;;;3.70;;
16640;SDS011;8434;47.990;7.880;2024-01-16T13:37:30;9.53;;;3.60;;
16640;SDS011;8434;47.990;7.880;2024-01-16T13:40:16;5.60;;;3.40;;
16640;SDS011;8434;47.990;7.880;2024-01-16T13:43:04;7.37;;;3.40;;
16640;SDS011;8434;47.990;7.880;2024-01-16T13:45:50;7.00;;;3.60;;
16640;SDS011;8434;47.990;7.880;2024-01-16T13:48:35;6.30;;;3.50;;
16640;SDS011;8434;47.990;7.880;2024-01-16T13:51:21;7.97;;;3.80;;
16640;SDS011;8434;47.990;7.880;2024-01-16T13:54:06;10.17;;;5.00;;
16640;SDS011;8434;47.990;7.880;2024-01-16T13:56:52;7.73;;;4.50;;
16640;SDS011;8434;47.990;7.880;2024-01-16T13:59:39;8.37;;;3.67;;
16640;SDS011;8434;47.990;7.880;2024-01-16T14:02:24;5.73;;;3.97;;
16640;SDS011;8434;47.990;7.880;2024-01-16T14:05:10;5.63;;;3.07;;
16640;SDS011;8434;47.990;7.880;2024-01-16T14:07:56;5.03;;;2.83;;
16640;SDS011;8434;47.990;7.880;2024-01-16T14:10:41;5.63;;;3.00;;
16640;SDS011;8434;47.990;7.880;2024-01-16T14:13:27;7.13;;;3.10;;
16640;SDS011;8434;47.990;7.880;2024-01-16T14:16:15;6.53;;;3.20;;
16640;SDS011;8434;47.990;7.880;2024-01-16T14:19:02;7.83;;;3.03;;
16640;SDS011;8434;47.990;7.880;2024-01-16T14:21:48;7.77;;;4.30;;
16640;SDS011;8434;47.990;7.880;2024-01-16T14:24:33;5.23;;;3.30;;
16640;SDS011;8434;47.990;7.880;2024-01-16T14:27:19;10.50;;;3.60;;
16640;SDS011;8434;47.990;7.880;2024-01-16T14:30:05;6.83;;;3.80;;
16640;SDS011;8434;47.990;7.880;2024-01-16T14:32:53;5.30;;;3.27;;
16640;SDS011;8434;47.990;7.880;2024-01-16T14:35:39;7.60;;;3.90;;
16640;SDS011;8434;47.990;7.880;2024-01-16T14:38:26;8.07;;;3.30;;
16640;SDS011;8434;47.990;7.880;2024-01-16T14:41:12;13.67;;;4.73;;
16640;SDS011;8434;47.990;7.880;2024-01-16T14:48:28;7.63;;;4.70;;
16640;SDS011;8434;47.990;7.880;2024-01-16T14:51:14;11.17;;;5.53;;
16640;SDS011;8434;47.990;7.880;2024-01-16T14:53:59;12.60;;;5.07;;
16640;SDS011;8434;47.990;7.880;2024-01-16T14:56:46;11.67;;;5.53;;
16640;SDS011;8434;47.990;7.880;2024-01-16T14:59:33;12.20;;;5.50;;
16640;SDS011;8434;47.990;7.880;2024-01-16T15:02:18;14.43;;;6.03;;
16640;SDS011;8434;47.990;7.880;2024-01-16T15:05:06;9.87;;;5.10;;
16640;SDS011;8434;47.990;7.880;2024-01-16T15:07:51;13.50;;;6.97;;
16640;SDS011;8434;47.990;7.880;2024-01-16T15:10:37;11.03;;;5.00;;
16640;SDS011;8434;47.990;7.880;2024-01-16T15:13:23;12.83;;;5.67;;
16640;SDS011;8434;47.990;7.880;2024-01-16T15:16:08;5.43;;;3.80;;
16640;SDS011;8434;47.990;7.880;2024-01-16T15:18:54;7.13;;;3.80;;
16640;SDS011;8434;47.990;7.880;2024-01-16T15:21:42;8.67;;;4.10;;
16640;SDS011;8434;47.990;7.880;2024-01-16T15:24:27;7.43;;;3.93;;
16640;SDS011;8434;47.990;7.880;2024-01-16T15:27:12;5.87;;;3.13;;
16640;SDS011;8434;47.990;7.880;2024-01-16T15:29:58;12.80;;;4.27;;
16640;SDS011;8434;47.990;7.880;2024-01-16T15:32:44;8.60;;;4.20;;
16640;SDS011;8434;47.990;7.880;2024-01-16T15:35:29;6.17;;;3.87;;
16640;SDS011;8434;47.990;7.880;2024-01-16T15:38:16;4.73;;;4.13;;
16640;SDS011;8434;47.990;7.880;2024-01-16T15:41:02;9.57;;;4.57;;
16640;SDS011;8434;47.990;7.880;2024-01-16T15:43:47;6.97;;;4.27;;
16640;SDS011;8434;47.990;7.880;2024-01-16T15:46:33;8.73;;;4.60;;
16640;SDS011;8434;47.990;7.880;2024-01-16T15:49:21;10.70;;;5.53;;
16640;SDS011;8434;47.990;7.880;2024-01-16T15:52:06;10.50;;;6.23;;
16640;SDS011;8434;47.990;7.880;2024-01-16T15:54:53;12.63;;;5.67;;
16640;SDS011;8434;47.990;7.880;2024-01-16T15:57:41;7.67;;;5.53;;
16640;SDS011;8434;47.990;7.880;2024-01-16T16:00:26;18.60;;;6.33;;
16640;SDS011;8434;47.990;7.880;2024-01-16T16:03:12;8.07;;;4.83;;
16640;SDS011;8434;47.990;7.880;2024-01-16T16:05:58;11.23;;;4.87;;
16640;SDS011;8434;47.990;7.880;2024-01-16T16:08:43;10.97;;;4.90;;
16640;SDS011;8434;47.990;7.880;2024-01-16T16:11:34;12.00;;;5.37;;
16640;SDS011;8434;47.990;7.880;2024-01-16T16:14:20;16.37;;;8.23;;
16640;SDS011;8434;47.990;7.880;2024-01-16T16:17:05;11.23;;;9.03;;
16640;SDS011;8434;47.990;7.880;2024-01-16T16:19:52;11.90;;;8.17;;
16640;SDS011;8434;47.990;7.880;2024-01-16T16:22:38;14.97;;;9.30;;
16640;SDS011;8434;47.990;7.880;2024-01-16T16:25:23;19.57;;;8.73;;
16640;SDS011;8434;47.990;7.880;2024-01-16T16:28:10;10.43;;;6.90;;
16640;SDS011;8434;47.990;7.880;2024-01-16T16:30:59;11.37;;;6.30;;
16640;SDS011;8434;47.990;7.880;2024-01-16T16:33:45;11.40;;;6.73;;
16640;SDS011;8434;47.990;7.880;2024-01-16T16:36:30;9.40;;;5.47;;
16640;SDS011;8434;47.990;7.880;2024-01-16T16:39:17;13.60;;;6.90;;
16640;SDS011;8434;47.990;7.880;2024-01-16T16:42:02;20.60;;;10.97;;
16640;SDS011;8434;47.990;7.880;2024-01-16T16:44:50;30.23;;;12.53;;
16640;SDS011;8434;47.990;7.880;2024-01-16T16:47:36;18.60;;;8.70;;
16640;SDS011;8434;47.990;7.880;2024-01-16T16:50:21;20.73;;;8.77;;
16640;SDS011;8434;47.990;7.880;2024-01-16T16:53:08;7.80;;;4.70;;
16640;SDS011;8434;47.990;7.880;2024-01-16T16:58:56;11.00;;;6.33;;
16640;SDS011;8434;47.990;7.880;2024-01-16T17:01:43;11.13;;;6.83;;
16640;SDS011;8434;47.990;7.880;2024-01-16T17:04:28;12.37;;;7.03;;
16640;SDS011;8434;47.990;7.880;2024-01-16T17:07:14;11.20;;;5.97;;
16640;SDS011;8434;47.990;7.880;2024-01-16T17:10:00;9.97;;;4.67;;
16640;SDS011;8434;47.990;7.880;2024-01-16T17:12:46;8.00;;;4.77;;
16640;SDS011;8434;47.990;7.880;2024-01-16T17:15:32;7.10;;;4.07;;
16640;SDS011;8434;47.990;7.880;2024-01-16T17:18:19;17.87;;;6.13;;
16640;SDS011;8434;47.990;7.880;2024-01-16T17:21:05;8.77;;;4.87;;
16640;SDS011;8434;47.990;7.880;2024-01-16T17:23:50;8.77;;;5.10;;